CheckWX is a tool to help pilots better visualize weather data.  It is not intended as a substitute for an official pre-flight weather briefing.

22:36:54 UTC

KMER METAR
Castle Airport
Atwater, California, USA
Current

52 mins ago

KMER 302145Z 30004KT 10SM FEW037 22/11 A3027
Observed
Mar-30 @ 21:45 UTC
Wind
  • 300° at 4 KTS
Visibility
10 SM
Flight Rules
VFR
Cloud Levels
  • Few at 3,700' AGL
Temperature
22°C / 72°F
Dewpoint
11°C / 52°F
Humidity
50%
Altimeter
30.27" Hg
Pressure
1025.02 hPa
Previous

2 hours ago

KMER 302045Z 3006KT 10SM FEW027 20/12 A3029
Observed
Mar-30 @ 20:45 UTC
Visibility
10 SM
Flight Rules
VFR
Cloud Levels
  • Few at 2,700' AGL
Temperature
20°C / 68°F
Dewpoint
12°C / 54°F
Humidity
60%
Altimeter
30.29" Hg
Pressure
1025.72 hPa
Previous

4 hours ago

KMER 301845Z 00000KT `SM SKC 18/13 A3032
Observed
Mar-30 @ 18:45 UTC
Visibility
Cloud Levels
  • Clear skies
Temperature
18°C / 64°F
Dewpoint
13°C / 55°F
Humidity
73%
Altimeter
30.32" Hg
Pressure
1026.72 hPa